ADDS TAF Board (Experimental) INFO Settings

IDs: Format: Expanded Condensed

KMIA - Miami Intl, FL, US

Issued at 2341 UTC 01 Apr 2015
Updated at: 0008 UTC 02 Apr 2015
Time2353Z 02/01Z 02/02Z 02/03Z 02/04Z 02/05Z 02/06Z 02/07Z 02/08Z 02/09Z 02/10Z 02/11Z 02/12Z 02/13Z
Type OBS PRVL PRVL PRVL PRVL PRVL PRVL PRVL PRVL PRVL PRVL PRVL PRVL PRVL
VIS 10 >6 >6 >6 >6 >6 >6 >6 >6 >6 >6 >6 >6 >6
CIG -- -- -- -- -- -- -- -- -- -- -- -- -- --
Cover FEW SKC SKC SKC SKC SKC SKC SKC SKC SKC SKC SKC SKC SKC
FltCat VFR VFR VFR VFR VFR VFR VFR VFR VFR VFR VFR VFR VFR VFR
WX -- -- -- -- -- -- -- -- -- -- -- -- -- --
WDir 150 130 130 VRB VRB VRB VRB VRB VRB VRB VRB VRB VRB VRB
WSpd 6 8 8 3 3 3 3 3 3 3 3 3 3 3
WGst -- -- -- -- -- -- -- -- -- -- -- -- -- --
R08/26
XWnd -5 -5 -5 VRB VRB VRB VRB VRB VRB VRB VRB VRB VRB VRB
HWnd 3 6 6 VRB VRB VRB VRB VRB VRB VRB VRB VRB VRB VRB
R09/27
XWnd -5 -5 -5 VRB VRB VRB VRB VRB VRB VRB VRB VRB VRB VRB
HWnd 3 6 6 VRB VRB VRB VRB VRB VRB VRB VRB VRB VRB VRB
R12/30
XWnd -3 -2 -2 VRB VRB VRB VRB VRB VRB VRB VRB VRB VRB VRB
HWnd 5 8 8 VRB VRB VRB VRB VRB VRB VRB VRB VRB VRB VRB

NOTE: TEMPO conditions in [brackets]. Keep in mind TEMPO conditions might be better (lower impact) than prevailing conditions.

Raw TAF
KMIA 012341Z 0200/0224 13008KT P6SM SKC
  FM020300 VRB03KT P6SM SKC
  FM021500 11009KT P6SM BKN100


Raw METAR
KMIA 012353Z 15006KT 10SM FEW035 24/16 A3010 RMK AO2 SLP194 T02390156 10289 20239 53009
KMIA 012253Z 15009G15KT 10SM FEW038 FEW300 25/16 A3008 RMK AO2 SLP186 T02500156
KMIA 012153Z 15008KT 10SM FEW044 FEW300 26/15 A3008 RMK AO2 SLP186 T02610150

METAR Board
Radar Display
Forecast Discussion

TAF Board Legend

Potential Impact
Threat None Slight Moderate High
Visibility (sm) ≥5.1 5.1>X≥3 3>X≥1 <1
Ceiling (100 ft) ≥30.1 30.1>X≥10 10>X≥5 <5
Wind Speed (kt) <10 10≤X<20 20≤X<30 ≥30
Wind Gust (kt) <15 15≤X<25 25≤X<35 ≥35
Weather No Wx Reported VCTS,-TS,-FZRA,SN TS,FZRA +TS,+FZRA,+SN